sensor_id;sensor_type;location;lat;lon;timestamp;temperature;humidity
1594;DHT22;790;47.000;16.084;2022-11-11T00:00:39;7.50;99.90
1594;DHT22;790;47.000;16.084;2022-11-11T00:03:06;7.50;99.90
1594;DHT22;790;47.000;16.084;2022-11-11T00:05:33;7.40;99.90
1594;DHT22;790;47.000;16.084;2022-11-11T00:08:02;7.40;99.90
1594;DHT22;790;47.000;16.084;2022-11-11T00:10:30;7.40;99.90
1594;DHT22;790;47.000;16.084;2022-11-11T00:13:01;7.30;99.90
1594;DHT22;790;47.000;16.084;2022-11-11T00:15:29;7.40;99.90
1594;DHT22;790;47.000;16.084;2022-11-11T00:17:56;7.40;99.90
1594;DHT22;790;47.000;16.084;2022-11-11T00:20:40;7.40;99.90
1594;DHT22;790;47.000;16.084;2022-11-11T00:23:27;7.30;99.90
1594;DHT22;790;47.000;16.084;2022-11-11T00:26:13;7.30;99.90
1594;DHT22;790;47.000;16.084;2022-11-11T00:28:41;7.30;99.90
1594;DHT22;790;47.000;16.084;2022-11-11T00:31:09;7.30;99.90
1594;DHT22;790;47.000;16.084;2022-11-11T00:33:38;7.20;99.90
1594;DHT22;790;47.000;16.084;2022-11-11T00:36:06;7.20;99.90
1594;DHT22;790;47.000;16.084;2022-11-11T00:38:33;7.20;99.90
1594;DHT22;790;47.000;16.084;2022-11-11T00:41:14;7.20;99.90
1594;DHT22;790;47.000;16.084;2022-11-11T00:43:41;7.20;99.90
1594;DHT22;790;47.000;16.084;2022-11-11T00:46:09;7.20;99.90
1594;DHT22;790;47.000;16.084;2022-11-11T00:48:54;7.20;99.90
1594;DHT22;790;47.000;16.084;2022-11-11T00:51:38;7.00;99.90
1594;DHT22;790;47.000;16.084;2022-11-11T00:54:08;7.00;99.90
1594;DHT22;790;47.000;16.084;2022-11-11T00:56:35;7.10;99.90
1594;DHT22;790;47.000;16.084;2022-11-11T00:59:03;7.10;99.90
1594;DHT22;790;47.000;16.084;2022-11-11T01:01:30;7.10;99.90
1594;DHT22;790;47.000;16.084;2022-11-11T01:03:58;7.00;99.90
1594;DHT22;790;47.000;16.084;2022-11-11T01:06:25;6.90;99.90
1594;DHT22;790;47.000;16.084;2022-11-11T01:08:53;6.80;99.90
1594;DHT22;790;47.000;16.084;2022-11-11T01:11:23;6.80;99.90
1594;DHT22;790;47.000;16.084;2022-11-11T01:13:50;6.70;99.90
1594;DHT22;790;47.000;16.084;2022-11-11T01:16:20;6.60;99.90
1594;DHT22;790;47.000;16.084;2022-11-11T01:18:48;6.50;99.90
1594;DHT22;790;47.000;16.084;2022-11-11T01:21:17;6.50;99.90
1594;DHT22;790;47.000;16.084;2022-11-11T01:23:46;6.30;99.90
1594;DHT22;790;47.000;16.084;2022-11-11T01:26:16;6.20;99.90
1594;DHT22;790;47.000;16.084;2022-11-11T01:28:47;6.10;99.90
1594;DHT22;790;47.000;16.084;2022-11-11T01:31:18;6.10;99.90
1594;DHT22;790;47.000;16.084;2022-11-11T01:33:46;6.00;99.90
1594;DHT22;790;47.000;16.084;2022-11-11T01:36:16;6.00;99.90
1594;DHT22;790;47.000;16.084;2022-11-11T01:38:47;6.00;99.90
1594;DHT22;790;47.000;16.084;2022-11-11T01:41:18;6.00;99.90
1594;DHT22;790;47.000;16.084;2022-11-11T01:44:16;6.00;99.90
1594;DHT22;790;47.000;16.084;2022-11-11T01:46:47;5.90;99.90
1594;DHT22;790;47.000;16.084;2022-11-11T01:49:24;5.80;99.90
1594;DHT22;790;47.000;16.084;2022-11-11T01:51:58;5.90;99.90
1594;DHT22;790;47.000;16.084;2022-11-11T01:54:31;5.80;99.90
1594;DHT22;790;47.000;16.084;2022-11-11T01:57:04;5.70;99.90
1594;DHT22;790;47.000;16.084;2022-11-11T01:59:36;5.60;99.90
1594;DHT22;790;47.000;16.084;2022-11-11T02:02:09;5.60;99.90
1594;DHT22;790;47.000;16.084;2022-11-11T02:04:38;5.50;99.90
1594;DHT22;790;47.000;16.084;2022-11-11T02:07:25;5.50;99.90
1594;DHT22;790;47.000;16.084;2022-11-11T02:09:53;5.50;99.90
1594;DHT22;790;47.000;16.084;2022-11-11T02:12:21;5.50;99.90
1594;DHT22;790;47.000;16.084;2022-11-11T02:15:08;5.50;99.90
1594;DHT22;790;47.000;16.084;2022-11-11T02:17:38;5.50;99.90
1594;DHT22;790;47.000;16.084;2022-11-11T02:20:08;5.50;99.90
1594;DHT22;790;47.000;16.084;2022-11-11T02:22:40;5.40;99.90
1594;DHT22;790;47.000;16.084;2022-11-11T02:25:13;5.40;99.90
1594;DHT22;790;47.000;16.084;2022-11-11T02:27:44;5.30;99.90
1594;DHT22;790;47.000;16.084;2022-11-11T02:30:16;5.30;99.90
1594;DHT22;790;47.000;16.084;2022-11-11T02:32:46;5.30;99.90
1594;DHT22;790;47.000;16.084;2022-11-11T02:35:15;5.30;99.90
1594;DHT22;790;47.000;16.084;2022-11-11T02:37:45;5.30;99.90
1594;DHT22;790;47.000;16.084;2022-11-11T02:40:17;5.30;99.90
1594;DHT22;790;47.000;16.084;2022-11-11T02:42:46;5.30;99.90
1594;DHT22;790;47.000;16.084;2022-11-11T02:45:13;5.20;99.90
1594;DHT22;790;47.000;16.084;2022-11-11T02:47:40;5.20;99.90
1594;DHT22;790;47.000;16.084;2022-11-11T02:50:08;5.20;99.90
1594;DHT22;790;47.000;16.084;2022-11-11T02:52:36;5.20;99.90
1594;DHT22;790;47.000;16.084;2022-11-11T02:55:03;5.10;99.90
1594;DHT22;790;47.000;16.084;2022-11-11T02:57:33;5.10;99.90
1594;DHT22;790;47.000;16.084;2022-11-11T03:00:01;5.00;99.90
1594;DHT22;790;47.000;16.084;2022-11-11T03:02:28;5.00;99.90
1594;DHT22;790;47.000;16.084;2022-11-11T03:04:56;5.00;99.90
1594;DHT22;790;47.000;16.084;2022-11-11T03:07:24;5.00;99.90
1594;DHT22;790;47.000;16.084;2022-11-11T03:09:51;5.00;99.90
1594;DHT22;790;47.000;16.084;2022-11-11T03:12:18;5.00;99.90
1594;DHT22;790;47.000;16.084;2022-11-11T03:14:47;5.00;99.90
1594;DHT22;790;47.000;16.084;2022-11-11T03:17:14;5.00;99.90
1594;DHT22;790;47.000;16.084;2022-11-11T03:19:59;5.00;99.90
1594;DHT22;790;47.000;16.084;2022-11-11T03:22:39;4.90;99.90
1594;DHT22;790;47.000;16.084;2022-11-11T03:25:07;4.90;99.90
1594;DHT22;790;47.000;16.084;2022-11-11T03:27:57;4.80;99.90
1594;DHT22;790;47.000;16.084;2022-11-11T03:30:26;4.70;99.90
1594;DHT22;790;47.000;16.084;2022-11-11T03:32:53;4.70;99.90
1594;DHT22;790;47.000;16.084;2022-11-11T03:35:20;4.60;99.90
1594;DHT22;790;47.000;16.084;2022-11-11T03:37:47;4.60;99.90
1594;DHT22;790;47.000;16.084;2022-11-11T03:40:31;4.60;99.90
1594;DHT22;790;47.000;16.084;2022-11-11T03:42:58;4.60;99.90
1594;DHT22;790;47.000;16.084;2022-11-11T03:45:26;4.70;99.90
1594;DHT22;790;47.000;16.084;2022-11-11T03:47:53;4.70;99.90
1594;DHT22;790;47.000;16.084;2022-11-11T03:50:21;4.70;99.90
1594;DHT22;790;47.000;16.084;2022-11-11T03:52:48;4.70;99.90
1594;DHT22;790;47.000;16.084;2022-11-11T03:55:15;4.70;99.90
1594;DHT22;790;47.000;16.084;2022-11-11T03:57:44;4.70;99.90
1594;DHT22;790;47.000;16.084;2022-11-11T04:00:13;4.60;99.90
1594;DHT22;790;47.000;16.084;2022-11-11T04:02:43;4.50;99.90
1594;DHT22;790;47.000;16.084;2022-11-11T04:05:27;4.40;99.90
1594;DHT22;790;47.000;16.084;2022-11-11T04:08:14;4.50;99.90
1594;DHT22;790;47.000;16.084;2022-11-11T04:11:02;4.40;99.90
1594;DHT22;790;47.000;16.084;2022-11-11T04:13:31;4.50;99.90
1594;DHT22;790;47.000;16.084;2022-11-11T04:16:16;4.40;99.90
1594;DHT22;790;47.000;16.084;2022-11-11T04:18:44;4.40;99.90
1594;DHT22;790;47.000;16.084;2022-11-11T04:21:29;4.40;99.90
1594;DHT22;790;47.000;16.084;2022-11-11T04:24:13;4.40;99.90
1594;DHT22;790;47.000;16.084;2022-11-11T04:27:00;4.50;99.90
1594;DHT22;790;47.000;16.084;2022-11-11T04:29:28;4.50;99.90
1594;DHT22;790;47.000;16.084;2022-11-11T04:31:55;4.40;99.90
1594;DHT22;790;47.000;16.084;2022-11-11T04:34:42;4.50;99.90
1594;DHT22;790;47.000;16.084;2022-11-11T04:37:10;4.40;99.90
1594;DHT22;790;47.000;16.084;2022-11-11T04:39:37;4.30;99.90
1594;DHT22;790;47.000;16.084;2022-11-11T04:42:22;4.20;99.90
1594;DHT22;790;47.000;16.084;2022-11-11T04:44:49;4.10;99.90
1594;DHT22;790;47.000;16.084;2022-11-11T04:47:34;4.10;99.90
1594;DHT22;790;47.000;16.084;2022-11-11T04:50:03;4.10;99.90
1594;DHT22;790;47.000;16.084;2022-11-11T04:52:31;4.10;99.90
1594;DHT22;790;47.000;16.084;2022-11-11T04:54:59;4.10;99.90
1594;DHT22;790;47.000;16.084;2022-11-11T04:57:44;4.10;99.90
1594;DHT22;790;47.000;16.084;2022-11-11T05:00:14;4.10;99.90
1594;DHT22;790;47.000;16.084;2022-11-11T05:02:41;4.10;99.90
1594;DHT22;790;47.000;16.084;2022-11-11T05:05:28;4.10;99.90
1594;DHT22;790;47.000;16.084;2022-11-11T05:08:17;4.10;99.90
1594;DHT22;790;47.000;16.084;2022-11-11T05:11:02;4.10;99.90
1594;DHT22;790;47.000;16.084;2022-11-11T05:13:29;4.10;99.90
1594;DHT22;790;47.000;16.084;2022-11-11T05:16:16;4.10;99.90
1594;DHT22;790;47.000;16.084;2022-11-11T05:19:01;4.10;99.90
1594;DHT22;790;47.000;16.084;2022-11-11T05:21:47;4.00;99.90
1594;DHT22;790;47.000;16.084;2022-11-11T05:24:14;4.00;99.90
1594;DHT22;790;47.000;16.084;2022-11-11T05:26:58;4.00;99.90
1594;DHT22;790;47.000;16.084;2022-11-11T05:29:25;4.10;99.90
1594;DHT22;790;47.000;16.084;2022-11-11T05:31:52;4.10;99.90
1594;DHT22;790;47.000;16.084;2022-11-11T05:34:19;4.10;99.90
1594;DHT22;790;47.000;16.084;2022-11-11T05:36:48;4.10;99.90
1594;DHT22;790;47.000;16.084;2022-11-11T05:39:15;4.10;99.90
1594;DHT22;790;47.000;16.084;2022-11-11T05:41:42;4.00;99.90
1594;DHT22;790;47.000;16.084;2022-11-11T05:44:09;4.00;99.90
1594;DHT22;790;47.000;16.084;2022-11-11T05:46:36;4.00;99.90
1594;DHT22;790;47.000;16.084;2022-11-11T05:49:03;4.00;99.90
1594;DHT22;790;47.000;16.084;2022-11-11T05:51:42;3.90;99.90
1594;DHT22;790;47.000;16.084;2022-11-11T05:54:10;3.90;99.90
1594;DHT22;790;47.000;16.084;2022-11-11T05:56:38;4.00;99.90
1594;DHT22;790;47.000;16.084;2022-11-11T05:59:06;4.00;99.90
1594;DHT22;790;47.000;16.084;2022-11-11T06:01:33;4.10;99.90
1594;DHT22;790;47.000;16.084;2022-11-11T06:04:01;4.10;99.90
1594;DHT22;790;47.000;16.084;2022-11-11T06:06:28;4.10;99.90
1594;DHT22;790;47.000;16.084;2022-11-11T06:08:55;4.10;99.90
1594;DHT22;790;47.000;16.084;2022-11-11T06:11:24;4.00;99.90
1594;DHT22;790;47.000;16.084;2022-11-11T06:13:52;3.90;99.90
1594;DHT22;790;47.000;16.084;2022-11-11T06:16:20;3.90;99.90
1594;DHT22;790;47.000;16.084;2022-11-11T06:18:47;3.80;99.90
1594;DHT22;790;47.000;16.084;2022-11-11T06:21:15;3.70;99.90
1594;DHT22;790;47.000;16.084;2022-11-11T06:23:44;3.80;99.90
1594;DHT22;790;47.000;16.084;2022-11-11T06:26:11;3.80;99.90
1594;DHT22;790;47.000;16.084;2022-11-11T06:28:39;3.80;99.90
1594;DHT22;790;47.000;16.084;2022-11-11T06:31:07;3.80;99.90
1594;DHT22;790;47.000;16.084;2022-11-11T06:33:34;3.80;99.90
1594;DHT22;790;47.000;16.084;2022-11-11T06:36:02;3.80;99.90
1594;DHT22;790;47.000;16.084;2022-11-11T06:38:29;3.90;99.90
1594;DHT22;790;47.000;16.084;2022-11-11T06:40:57;4.00;99.90
1594;DHT22;790;47.000;16.084;2022-11-11T06:43:24;4.10;99.90
1594;DHT22;790;47.000;16.084;2022-11-11T06:45:53;4.20;99.90
1594;DHT22;790;47.000;16.084;2022-11-11T06:48:22;4.30;99.90
1594;DHT22;790;47.000;16.084;2022-11-11T06:50:49;4.40;99.90
1594;DHT22;790;47.000;16.084;2022-11-11T06:53:19;4.50;99.90
1594;DHT22;790;47.000;16.084;2022-11-11T06:55:46;4.50;99.90
1594;DHT22;790;47.000;16.084;2022-11-11T06:58:14;4.60;99.90
1594;DHT22;790;47.000;16.084;2022-11-11T07:00:42;4.60;99.90
1594;DHT22;790;47.000;16.084;2022-11-11T07:03:13;4.70;99.90
1594;DHT22;790;47.000;16.084;2022-11-11T07:05:41;4.80;99.90
1594;DHT22;790;47.000;16.084;2022-11-11T07:08:10;4.80;99.90
1594;DHT22;790;47.000;16.084;2022-11-11T07:10:39;4.90;99.90
1594;DHT22;790;47.000;16.084;2022-11-11T07:13:06;5.00;99.90
1594;DHT22;790;47.000;16.084;2022-11-11T07:15:34;5.00;99.90
1594;DHT22;790;47.000;16.084;2022-11-11T07:18:01;5.10;99.90
1594;DHT22;790;47.000;16.084;2022-11-11T07:20:31;5.10;99.90
1594;DHT22;790;47.000;16.084;2022-11-11T07:22:58;5.10;99.90
1594;DHT22;790;47.000;16.084;2022-11-11T07:25:25;5.20;99.90
1594;DHT22;790;47.000;16.084;2022-11-11T07:27:53;5.20;99.90
1594;DHT22;790;47.000;16.084;2022-11-11T07:30:20;5.30;99.90
1594;DHT22;790;47.000;16.084;2022-11-11T07:32:47;5.30;99.90
1594;DHT22;790;47.000;16.084;2022-11-11T07:35:16;5.20;99.90
1594;DHT22;790;47.000;16.084;2022-11-11T07:37:45;5.30;99.90
1594;DHT22;790;47.000;16.084;2022-11-11T07:40:15;5.30;99.90
1594;DHT22;790;47.000;16.084;2022-11-11T07:42:43;5.40;99.90
1594;DHT22;790;47.000;16.084;2022-11-11T07:45:12;5.40;99.90
1594;DHT22;790;47.000;16.084;2022-11-11T07:47:42;5.50;99.90
1594;DHT22;790;47.000;16.084;2022-11-11T07:50:09;5.50;99.90
1594;DHT22;790;47.000;16.084;2022-11-11T07:52:36;5.50;99.90
1594;DHT22;790;47.000;16.084;2022-11-11T07:55:05;5.60;99.90
1594;DHT22;790;47.000;16.084;2022-11-11T07:57:33;5.70;99.90
1594;DHT22;790;47.000;16.084;2022-11-11T08:00:00;5.60;99.90
1594;DHT22;790;47.000;16.084;2022-11-11T08:02:27;5.70;99.90
1594;DHT22;790;47.000;16.084;2022-11-11T08:04:54;5.70;99.90
1594;DHT22;790;47.000;16.084;2022-11-11T08:07:21;5.70;99.90
1594;DHT22;790;47.000;16.084;2022-11-11T08:09:54;5.80;99.90
1594;DHT22;790;47.000;16.084;2022-11-11T08:12:23;5.90;99.90
1594;DHT22;790;47.000;16.084;2022-11-11T08:15:08;6.00;99.90
1594;DHT22;790;47.000;16.084;2022-11-11T08:17:38;6.00;99.90
1594;DHT22;790;47.000;16.084;2022-11-11T08:20:06;6.10;99.90
1594;DHT22;790;47.000;16.084;2022-11-11T08:22:37;6.20;99.90
1594;DHT22;790;47.000;16.084;2022-11-11T08:25:06;6.20;99.90
1594;DHT22;790;47.000;16.084;2022-11-11T08:27:36;6.20;99.90
1594;DHT22;790;47.000;16.084;2022-11-11T08:30:05;6.20;99.90
1594;DHT22;790;47.000;16.084;2022-11-11T08:32:33;6.30;99.90
1594;DHT22;790;47.000;16.084;2022-11-11T08:35:00;6.30;99.90
1594;DHT22;790;47.000;16.084;2022-11-11T08:37:28;6.20;99.90
1594;DHT22;790;47.000;16.084;2022-11-11T08:39:55;6.30;99.90
1594;DHT22;790;47.000;16.084;2022-11-11T08:42:22;6.40;99.90
1594;DHT22;790;47.000;16.084;2022-11-11T08:44:51;6.60;99.90
1594;DHT22;790;47.000;16.084;2022-11-11T08:47:18;6.70;99.90
1594;DHT22;790;47.000;16.084;2022-11-11T08:49:47;6.80;99.90
1594;DHT22;790;47.000;16.084;2022-11-11T08:52:15;6.90;99.90
1594;DHT22;790;47.000;16.084;2022-11-11T08:54:43;7.00;99.90
1594;DHT22;790;47.000;16.084;2022-11-11T08:57:10;7.00;99.90
1594;DHT22;790;47.000;16.084;2022-11-11T08:59:37;7.10;99.90
1594;DHT22;790;47.000;16.084;2022-11-11T09:02:07;7.30;99.90
1594;DHT22;790;47.000;16.084;2022-11-11T09:04:35;7.40;99.90
1594;DHT22;790;47.000;16.084;2022-11-11T09:07:03;7.60;99.90
1594;DHT22;790;47.000;16.084;2022-11-11T09:09:30;7.60;99.90
1594;DHT22;790;47.000;16.084;2022-11-11T09:11:57;7.70;99.90
1594;DHT22;790;47.000;16.084;2022-11-11T09:14:24;7.80;99.90
1594;DHT22;790;47.000;16.084;2022-11-11T09:16:51;8.00;99.90
1594;DHT22;790;47.000;16.084;2022-11-11T09:19:19;8.10;99.90
1594;DHT22;790;47.000;16.084;2022-11-11T09:21:46;8.20;99.90
1594;DHT22;790;47.000;16.084;2022-11-11T09:24:14;8.30;99.90
1594;DHT22;790;47.000;16.084;2022-11-11T09:26:41;8.40;99.90
1594;DHT22;790;47.000;16.084;2022-11-11T09:29:08;8.40;99.90
1594;DHT22;790;47.000;16.084;2022-11-11T09:31:35;8.50;99.90
1594;DHT22;790;47.000;16.084;2022-11-11T09:34:02;8.60;99.90
1594;DHT22;790;47.000;16.084;2022-11-11T09:36:32;8.70;99.90
1594;DHT22;790;47.000;16.084;2022-11-11T09:39:00;8.90;99.90
1594;DHT22;790;47.000;16.084;2022-11-11T09:41:35;8.90;99.90
1594;DHT22;790;47.000;16.084;2022-11-11T09:44:04;8.90;99.90
1594;DHT22;790;47.000;16.084;2022-11-11T09:46:35;8.90;99.90
1594;DHT22;790;47.000;16.084;2022-11-11T09:49:25;9.00;99.90
1594;DHT22;790;47.000;16.084;2022-11-11T09:52:00;9.10;99.90
1594;DHT22;790;47.000;16.084;2022-11-11T09:54:33;9.20;99.90
1594;DHT22;790;47.000;16.084;2022-11-11T09:57:05;9.30;99.90
1594;DHT22;790;47.000;16.084;2022-11-11T09:59:42;9.50;99.90
1594;DHT22;790;47.000;16.084;2022-11-11T10:02:18;9.60;99.90
1594;DHT22;790;47.000;16.084;2022-11-11T10:04:54;9.60;99.90
1594;DHT22;790;47.000;16.084;2022-11-11T10:07:40;9.70;99.90
1594;DHT22;790;47.000;16.084;2022-11-11T10:10:22;9.80;99.90
1594;DHT22;790;47.000;16.084;2022-11-11T10:12:53;10.00;99.90
1594;DHT22;790;47.000;16.084;2022-11-11T10:15:22;10.00;99.90
1594;DHT22;790;47.000;16.084;2022-11-11T10:18:03;10.10;99.90
1594;DHT22;790;47.000;16.084;2022-11-11T10:20:35;10.20;99.90
1594;DHT22;790;47.000;16.084;2022-11-11T10:23:13;10.20;99.90
1594;DHT22;790;47.000;16.084;2022-11-11T10:25:45;10.40;99.90
1594;DHT22;790;47.000;16.084;2022-11-11T10:28:18;10.50;99.90
1594;DHT22;790;47.000;16.084;2022-11-11T10:30:46;10.70;99.90
1594;DHT22;790;47.000;16.084;2022-11-11T10:33:18;10.80;99.90
1594;DHT22;790;47.000;16.084;2022-11-11T10:35:49;10.90;99.90
1594;DHT22;790;47.000;16.084;2022-11-11T10:38:30;11.00;99.90
1594;DHT22;790;47.000;16.084;2022-11-11T10:41:07;11.00;99.90
1594;DHT22;790;47.000;16.084;2022-11-11T10:43:37;11.10;99.90
1594;DHT22;790;47.000;16.084;2022-11-11T10:46:08;11.20;99.90
1594;DHT22;790;47.000;16.084;2022-11-11T10:48:42;11.20;99.90
1594;DHT22;790;47.000;16.084;2022-11-11T10:51:13;11.20;99.90
1594;DHT22;790;47.000;16.084;2022-11-11T10:53:51;11.20;99.90
1594;DHT22;790;47.000;16.084;2022-11-11T10:56:25;11.30;99.90
1594;DHT22;790;47.000;16.084;2022-11-11T10:58:59;11.20;99.90
1594;DHT22;790;47.000;16.084;2022-11-11T11:01:32;11.30;99.90
1594;DHT22;790;47.000;16.084;2022-11-11T11:04:05;11.30;99.90
1594;DHT22;790;47.000;16.084;2022-11-11T11:06:37;11.30;99.90
1594;DHT22;790;47.000;16.084;2022-11-11T11:09:13;11.40;99.90
1594;DHT22;790;47.000;16.084;2022-11-11T11:11:46;11.60;99.90
1594;DHT22;790;47.000;16.084;2022-11-11T11:14:19;11.70;99.90
1594;DHT22;790;47.000;16.084;2022-11-11T11:16:50;11.70;99.90
1594;DHT22;790;47.000;16.084;2022-11-11T11:19:21;11.80;99.90
1594;DHT22;790;47.000;16.084;2022-11-11T11:21:51;11.90;99.90
1594;DHT22;790;47.000;16.084;2022-11-11T11:24:21;11.90;99.90
1594;DHT22;790;47.000;16.084;2022-11-11T11:26:50;11.80;99.90
1594;DHT22;790;47.000;16.084;2022-11-11T11:29:25;11.80;99.90
1594;DHT22;790;47.000;16.084;2022-11-11T11:31:53;11.70;99.90
1594;DHT22;790;47.000;16.084;2022-11-11T11:34:20;11.70;99.90
1594;DHT22;790;47.000;16.084;2022-11-11T11:37:00;11.70;99.90
1594;DHT22;790;47.000;16.084;2022-11-11T11:39:36;11.70;99.90
1594;DHT22;790;47.000;16.084;2022-11-11T11:42:05;11.80;99.90
1594;DHT22;790;47.000;16.084;2022-11-11T11:44:33;11.90;99.90
1594;DHT22;790;47.000;16.084;2022-11-11T11:47:09;11.80;99.90
1594;DHT22;790;47.000;16.084;2022-11-11T11:49:53;11.80;99.90
1594;DHT22;790;47.000;16.084;2022-11-11T11:52:29;11.80;99.90
1594;DHT22;790;47.000;16.084;2022-11-11T11:55:05;11.80;99.90
1594;DHT22;790;47.000;16.084;2022-11-11T11:57:44;11.80;99.90
1594;DHT22;790;47.000;16.084;2022-11-11T12:00:17;11.80;99.90
1594;DHT22;790;47.000;16.084;2022-11-11T12:05:41;11.80;99.90
1594;DHT22;790;47.000;16.084;2022-11-11T12:08:23;11.80;99.90
1594;DHT22;790;47.000;16.084;2022-11-11T12:10:58;11.80;99.90
1594;DHT22;790;47.000;16.084;2022-11-11T12:13:34;11.80;99.90
1594;DHT22;790;47.000;16.084;2022-11-11T12:16:14;11.80;99.90
1594;DHT22;790;47.000;16.084;2022-11-11T12:19:06;11.80;99.90
1594;DHT22;790;47.000;16.084;2022-11-11T12:21:43;11.80;99.90
1594;DHT22;790;47.000;16.084;2022-11-11T12:24:26;11.80;99.90
1594;DHT22;790;47.000;16.084;2022-11-11T12:27:03;11.90;99.90
1594;DHT22;790;47.000;16.084;2022-11-11T12:29:47;11.90;99.90
1594;DHT22;790;47.000;16.084;2022-11-11T12:32:56;11.90;99.90
1594;DHT22;790;47.000;16.084;2022-11-11T12:35:47;12.00;99.90
1594;DHT22;790;47.000;16.084;2022-11-11T12:38:29;11.90;99.90
1594;DHT22;790;47.000;16.084;2022-11-11T12:41:06;12.10;99.90
1594;DHT22;790;47.000;16.084;2022-11-11T12:43:48;12.00;99.90
1594;DHT22;790;47.000;16.084;2022-11-11T12:46:22;11.90;99.90
1594;DHT22;790;47.000;16.084;2022-11-11T12:48:59;12.00;99.90
1594;DHT22;790;47.000;16.084;2022-11-11T12:51:39;11.90;99.90
1594;DHT22;790;47.000;16.084;2022-11-11T12:54:18;11.90;99.90
1594;DHT22;790;47.000;16.084;2022-11-11T12:56:54;12.00;99.90
1594;DHT22;790;47.000;16.084;2022-11-11T12:59:34;12.00;99.90
1594;DHT22;790;47.000;16.084;2022-11-11T13:02:17;12.00;99.90
1594;DHT22;790;47.000;16.084;2022-11-11T13:04:55;12.10;99.90
1594;DHT22;790;47.000;16.084;2022-11-11T13:07:46;12.20;99.90
1594;DHT22;790;47.000;16.084;2022-11-11T13:10:35;12.30;99.90
1594;DHT22;790;47.000;16.084;2022-11-11T13:13:19;12.30;99.90
1594;DHT22;790;47.000;16.084;2022-11-11T13:15:54;12.40;99.90
1594;DHT22;790;47.000;16.084;2022-11-11T13:18:25;12.30;99.90
1594;DHT22;790;47.000;16.084;2022-11-11T13:20:57;12.30;99.90
1594;DHT22;790;47.000;16.084;2022-11-11T13:23:27;12.20;99.90
1594;DHT22;790;47.000;16.084;2022-11-11T13:25:57;12.20;99.90
1594;DHT22;790;47.000;16.084;2022-11-11T13:28:29;12.20;99.90
1594;DHT22;790;47.000;16.084;2022-11-11T13:31:11;12.10;99.90
1594;DHT22;790;47.000;16.084;2022-11-11T13:33:43;12.10;99.90
1594;DHT22;790;47.000;16.084;2022-11-11T13:36:14;12.00;99.90
1594;DHT22;790;47.000;16.084;2022-11-11T13:38:45;12.00;99.90
1594;DHT22;790;47.000;16.084;2022-11-11T13:41:21;12.10;99.90
1594;DHT22;790;47.000;16.084;2022-11-11T13:43:50;12.00;99.90
1594;DHT22;790;47.000;16.084;2022-11-11T13:46:44;12.00;99.90
1594;DHT22;790;47.000;16.084;2022-11-11T13:49:22;12.00;99.90
1594;DHT22;790;47.000;16.084;2022-11-11T13:51:57;11.90;99.90
1594;DHT22;790;47.000;16.084;2022-11-11T13:54:27;12.00;99.90
1594;DHT22;790;47.000;16.084;2022-11-11T13:57:02;12.00;99.90
1594;DHT22;790;47.000;16.084;2022-11-11T13:59:32;12.10;99.90
1594;DHT22;790;47.000;16.084;2022-11-11T14:02:41;12.10;99.90
1594;DHT22;790;47.000;16.084;2022-11-11T14:05:16;12.00;99.90
1594;DHT22;790;47.000;16.084;2022-11-11T14:07:48;12.00;99.90
1594;DHT22;790;47.000;16.084;2022-11-11T14:13:39;12.00;99.90
1594;DHT22;790;47.000;16.084;2022-11-11T14:16:11;12.10;99.90
1594;DHT22;790;47.000;16.084;2022-11-11T14:18:45;12.20;99.90
1594;DHT22;790;47.000;16.084;2022-11-11T14:21:41;12.20;99.90
1594;DHT22;790;47.000;16.084;2022-11-11T14:24:09;12.10;99.90
1594;DHT22;790;47.000;16.084;2022-11-11T14:26:36;12.10;99.90
1594;DHT22;790;47.000;16.084;2022-11-11T14:29:04;12.00;99.90
1594;DHT22;790;47.000;16.084;2022-11-11T14:31:50;11.90;99.90
1594;DHT22;790;47.000;16.084;2022-11-11T14:34:43;11.80;99.90
1594;DHT22;790;47.000;16.084;2022-11-11T14:37:23;11.80;99.90
1594;DHT22;790;47.000;16.084;2022-11-11T14:39:54;11.80;99.90
1594;DHT22;790;47.000;16.084;2022-11-11T14:42:44;11.80;99.90
1594;DHT22;790;47.000;16.084;2022-11-11T14:51:48;11.80;99.90
1594;DHT22;790;47.000;16.084;2022-11-11T14:54:42;11.70;99.90
1594;DHT22;790;47.000;16.084;2022-11-11T14:57:19;11.60;99.90
1594;DHT22;790;47.000;16.084;2022-11-11T14:59:47;11.50;99.90
1594;DHT22;790;47.000;16.084;2022-11-11T15:02:24;11.50;99.90
1594;DHT22;790;47.000;16.084;2022-11-11T15:04:52;11.50;99.90
1594;DHT22;790;47.000;16.084;2022-11-11T15:10:24;11.40;99.90
1594;DHT22;790;47.000;16.084;2022-11-11T15:13:04;11.20;99.90
1594;DHT22;790;47.000;16.084;2022-11-11T15:15:40;11.10;99.90
1594;DHT22;790;47.000;16.084;2022-11-11T15:18:19;10.90;99.90
1594;DHT22;790;47.000;16.084;2022-11-11T15:20:59;10.90;99.90
1594;DHT22;790;47.000;16.084;2022-11-11T15:23:34;10.80;99.90
1594;DHT22;790;47.000;16.084;2022-11-11T15:26:12;10.70;99.90
1594;DHT22;790;47.000;16.084;2022-11-11T15:28:57;10.60;99.90
1594;DHT22;790;47.000;16.084;2022-11-11T15:31:34;10.40;99.90
1594;DHT22;790;47.000;16.084;2022-11-11T15:34:16;10.40;99.90
1594;DHT22;790;47.000;16.084;2022-11-11T15:36:53;10.20;99.90
1594;DHT22;790;47.000;16.084;2022-11-11T15:39:23;10.10;99.90
1594;DHT22;790;47.000;16.084;2022-11-11T15:41:53;9.90;99.90
1594;DHT22;790;47.000;16.084;2022-11-11T15:44:22;9.90;99.90
1594;DHT22;790;47.000;16.084;2022-11-11T15:46:51;9.80;99.90
1594;DHT22;790;47.000;16.084;2022-11-11T15:49:39;9.70;99.90
1594;DHT22;790;47.000;16.084;2022-11-11T15:52:23;9.60;99.90
1594;DHT22;790;47.000;16.084;2022-11-11T15:54:53;9.50;99.90
1594;DHT22;790;47.000;16.084;2022-11-11T15:57:27;9.50;99.90
1594;DHT22;790;47.000;16.084;2022-11-11T15:59:55;9.30;99.90
1594;DHT22;790;47.000;16.084;2022-11-11T16:02:24;9.30;99.90
1594;DHT22;790;47.000;16.084;2022-11-11T16:04:55;9.20;99.90
1594;DHT22;790;47.000;16.084;2022-11-11T16:07:24;9.10;99.90
1594;DHT22;790;47.000;16.084;2022-11-11T16:09:57;9.10;99.90
1594;DHT22;790;47.000;16.084;2022-11-11T16:12:32;9.10;99.90
1594;DHT22;790;47.000;16.084;2022-11-11T16:15:06;9.00;99.90
1594;DHT22;790;47.000;16.084;2022-11-11T16:17:37;9.00;99.90
1594;DHT22;790;47.000;16.084;2022-11-11T16:20:12;8.90;99.90
1594;DHT22;790;47.000;16.084;2022-11-11T16:22:42;8.90;99.90
1594;DHT22;790;47.000;16.084;2022-11-11T16:25:13;8.90;99.90
1594;DHT22;790;47.000;16.084;2022-11-11T16:27:44;8.90;99.90
1594;DHT22;790;47.000;16.084;2022-11-11T16:30:20;8.80;99.90
1594;DHT22;790;47.000;16.084;2022-11-11T16:32:54;8.70;99.90
1594;DHT22;790;47.000;16.084;2022-11-11T16:35:25;8.70;99.90
1594;DHT22;790;47.000;16.084;2022-11-11T16:37:54;8.70;99.90
1594;DHT22;790;47.000;16.084;2022-11-11T16:40:34;8.70;99.90
1594;DHT22;790;47.000;16.084;2022-11-11T16:43:18;8.60;99.90
1594;DHT22;790;47.000;16.084;2022-11-11T16:45:47;8.60;99.90
1594;DHT22;790;47.000;16.084;2022-11-11T16:48:45;8.50;99.90
1594;DHT22;790;47.000;16.084;2022-11-11T16:51:17;8.40;99.90
1594;DHT22;790;47.000;16.084;2022-11-11T16:53:49;8.40;99.90
1594;DHT22;790;47.000;16.084;2022-11-11T16:56:24;8.30;99.90
1594;DHT22;790;47.000;16.084;2022-11-11T16:58:59;8.30;99.90
1594;DHT22;790;47.000;16.084;2022-11-11T17:01:29;8.20;99.90
1594;DHT22;790;47.000;16.084;2022-11-11T17:03:57;8.20;99.90